Time;durP1;ratioP1;P1;durP2;ratioP2;P2;SDS_P1;SDS_P2;PMS_P1;PMS_P2;Temp;Humidity;BMP_temperature;BMP_pressure;BME280_temperature;BME280_humidity;BME280_pressure;Samples;Min_cycle;Max_cycle;Signal;HPM_P1;HPM_P2
2023/11/25 00:00:48;;;;;;;2.55;1.23;;;6.00;99.90;;;;;;5049702;28;20193;-88
2023/11/25 00:03:15;;;;;;;2.33;1.58;;;4.50;99.90;;;;;;5034742;28;20212;-88
2023/11/25 00:05:41;;;;;;;3.85;1.40;;;5.60;99.90;;;;;;5033443;28;20208;-88
2023/11/25 00:08:07;;;;;;;3.33;1.90;;;5.00;99.90;;;;;;5034434;28;20180;-88
2023/11/25 00:10:34;;;;;;;4.53;1.40;;;6.30;99.90;;;;;;5035227;28;20613;-88
2023/11/25 00:13:00;;;;;;;2.80;1.40;;;4.90;99.90;;;;;;5035987;28;20468;-88
2023/11/25 00:15:26;;;;;;;2.35;1.10;;;3.80;99.90;;;;;;5045293;28;20175;-87
2023/11/25 00:17:52;;;;;;;1.80;1.30;;;4.20;99.90;;;;;;5060738;28;20199;-88
2023/11/25 00:20:19;;;;;;;1.40;1.20;;;4.90;99.90;;;;;;5052327;28;20448;-88
2023/11/25 00:22:45;;;;;;;1.95;1.05;;;4.70;99.90;;;;;;5035936;28;20201;-88
2023/11/25 00:25:11;;;;;;;1.83;0.90;;;6.10;99.90;;;;;;5033741;28;20577;-88
2023/11/25 00:27:40;;;;;;;3.30;1.00;;;4.90;99.90;;;;;;5034202;28;20198;-88
2023/11/25 00:30:07;;;;;;;3.17;1.33;;;5.10;99.90;;;;;;5052215;28;20192;-88
2023/11/25 00:32:37;;;;;;;2.70;1.30;;;4.80;99.90;;;;;;5031006;28;20219;-88
2023/11/25 00:35:03;;;;;;;6.82;2.58;;;4.30;99.90;;;;;;5039605;28;21005;-88
2023/11/25 00:37:29;;;;;;;1.48;0.82;;;5.10;99.90;;;;;;5034318;28;20181;-87
2023/11/25 00:39:55;;;;;;;3.03;1.10;;;;;;;;;;5030907;28;20274;-88
2023/11/25 00:42:21;;;;;;;3.00;1.10;;;;;;;;;;5038132;28;20199;-88
2023/11/25 00:44:47;;;;;;;1.00;0.85;;;4.90;99.90;;;;;;5033804;28;20230;-88
2023/11/25 00:47:13;;;;;;;3.33;1.30;;;5.20;99.90;;;;;;5034451;28;20184;-88
2023/11/25 00:49:41;;;;;;;3.00;1.20;;;4.00;99.90;;;;;;5034450;28;20238;-88
2023/11/25 00:52:07;;;;;;;2.38;1.33;;;4.90;99.90;;;;;;5053342;28;20202;-88
2023/11/25 00:54:33;;;;;;;2.83;1.33;;;6.00;99.90;;;;;;5051694;28;20204;-88
2023/11/25 00:57:01;;;;;;;2.88;1.55;;;3.80;99.90;;;;;;5059546;28;20435;-88
2023/11/25 00:59:26;;;;;;;1.60;1.20;;;4.00;99.90;;;;;;5051894;28;20233;-88
2023/11/25 01:02:27;;;;;;;1.83;1.50;;;4.70;99.90;;;;;;5057957;28;20252;-88
2023/11/25 01:04:53;;;;;;;2.65;1.48;;;5.00;99.90;;;;;;5055634;28;20473;-88
2023/11/25 01:07:19;;;;;;;1.73;1.17;;;;;;;;;;5037904;28;20206;-88
2023/11/25 01:09:45;;;;;;;2.65;1.10;;;;;;;;;;5034528;28;20556;-88
2023/11/25 01:12:11;;;;;;;3.85;1.35;;;5.00;99.90;;;;;;5037480;28;20213;-88
2023/11/25 01:14:37;;;;;;;4.37;1.40;;;;;;;;;;5037786;28;20198;-88
2023/11/25 01:17:02;;;;;;;1.42;1.08;;;5.00;99.90;;;;;;5036383;28;20187;-88
2023/11/25 01:19:28;;;;;;;3.03;1.50;;;4.90;99.90;;;;;;5036091;28;20188;-88
2023/11/25 01:21:54;;;;;;;3.20;1.30;;;;;;;;;;5037552;28;20182;-88
2023/11/25 01:24:22;;;;;;;5.93;1.80;;;4.80;99.90;;;;;;5035953;28;20212;-88
2023/11/25 01:26:48;;;;;;;2.83;1.27;;;6.30;99.90;;;;;;5034715;28;20212;-88
2023/11/25 01:29:14;;;;;;;2.28;1.00;;;5.70;99.90;;;;;;5037774;28;20182;-88
2023/11/25 01:31:40;;;;;;;4.07;1.90;;;5.90;99.90;;;;;;5039237;28;20204;-88
2023/11/25 01:34:06;;;;;;;3.40;1.35;;;4.00;99.90;;;;;;5037641;28;20216;-88
2023/11/25 01:36:32;;;;;;;2.80;0.90;;;5.60;99.90;;;;;;5036233;28;20274;-87
2023/11/25 01:38:58;;;;;;;2.22;1.20;;;4.90;99.90;;;;;;5054662;28;20435;-88
2023/11/25 01:41:24;;;;;;;2.30;1.47;;;;;;;;;;5058634;28;20200;-88
2023/11/25 01:43:50;;;;;;;2.10;1.33;;;4.70;99.90;;;;;;5053389;28;20460;-88
2023/11/25 01:46:32;;;;;;;1.23;1.10;;;4.30;99.90;;;;;;5061642;28;20438;-88
2023/11/25 01:48:58;;;;;;;2.42;1.30;;;6.30;99.90;;;;;;5039721;28;20188;-88
2023/11/25 01:51:25;;;;;;;2.97;1.10;;;5.60;99.90;;;;;;5040168;28;20767;-88
2023/11/25 01:53:51;;;;;;;4.35;0.93;;;3.70;99.90;;;;;;5035156;28;20461;-88
2023/11/25 01:56:17;;;;;;;3.13;1.10;;;4.00;99.90;;;;;;5038720;28;20253;-88
2023/11/25 01:58:43;;;;;;;2.50;1.10;;;4.80;99.90;;;;;;5033354;28;21108;-88
2023/11/25 02:01:09;;;;;;;1.30;1.20;;;;;;;;;;5036735;28;20275;-88
2023/11/25 02:03:36;;;;;;;2.78;1.35;;;;;;;;;;5035246;28;20477;-88
2023/11/25 02:06:01;;;;;;;2.45;1.30;;;4.90;99.90;;;;;;5039814;28;20187;-88
2023/11/25 02:08:27;;;;;;;2.70;1.40;;;;;;;;;;5035331;28;20197;-88
2023/11/25 02:10:53;;;;;;;3.80;1.35;;;4.80;99.90;;;;;;5032416;28;20300;-88
2023/11/25 02:13:19;;;;;;;1.13;1.00;;;4.80;99.90;;;;;;5038365;28;20291;-88
2023/11/25 02:15:45;;;;;;;4.37;1.67;;;;;;;;;;5035613;28;20310;-88
2023/11/25 02:18:11;;;;;;;1.55;1.17;;;4.90;99.90;;;;;;5040188;28;20187;-88
2023/11/25 02:20:40;;;;;;;1.33;1.23;;;5.00;99.90;;;;;;5036163;28;20213;-88
2023/11/25 02:23:17;;;;;;;2.33;1.25;;;4.60;99.90;;;;;;5036942;28;20219;-88
2023/11/25 02:25:47;;;;;;;3.58;1.25;;;5.70;99.90;;;;;;5034112;28;20561;-88
2023/11/25 02:28:16;;;;;;;5.10;1.75;;;4.10;99.90;;;;;;5032439;28;20183;-88
2023/11/25 02:30:44;;;;;;;2.83;1.35;;;4.70;99.90;;;;;;5035978;28;20210;-88
2023/11/25 02:33:11;;;;;;;3.40;1.45;;;;;;;;;;5037314;28;20598;-88
2023/11/25 02:35:37;;;;;;;1.55;1.45;;;4.50;99.90;;;;;;5042335;28;20192;-88
2023/11/25 02:38:04;;;;;;;1.73;1.33;;;;;;;;;;5028985;28;20185;-88
2023/11/25 02:40:31;;;;;;;2.63;1.73;;;4.50;99.90;;;;;;5032937;28;20445;-88
2023/11/25 02:42:56;;;;;;;6.72;1.88;;;4.40;99.90;;;;;;5037113;28;20188;-88
2023/11/25 02:45:22;;;;;;;4.30;1.30;;;4.50;99.90;;;;;;5031679;28;20189;-88
2023/11/25 02:47:51;;;;;;;3.77;1.53;;;3.60;99.90;;;;;;5036857;28;20187;-88
2023/11/25 02:50:18;;;;;;;2.42;1.27;;;4.50;99.90;;;;;;5039096;28;20217;-88
2023/11/25 02:52:45;;;;;;;2.30;1.70;;;5.70;99.90;;;;;;5036025;28;20267;-88
2023/11/25 02:55:11;;;;;;;3.38;2.17;;;4.40;99.90;;;;;;5030081;28;20200;-88
2023/11/25 02:57:42;;;;;;;2.55;1.70;;;3.00;99.90;;;;;;5034208;28;20713;-88
2023/11/25 03:00:33;;;;;;;3.45;1.30;;;4.80;99.90;;;;;;5029675;28;20268;-88
2023/11/25 03:03:07;;;;;;;3.45;1.83;;;4.20;99.90;;;;;;5034811;28;20192;-88
2023/11/25 03:05:34;;;;;;;3.90;1.77;;;3.60;99.90;;;;;;5021059;28;20633;-88
2023/11/25 03:08:00;;;;;;;3.40;1.63;;;4.20;99.90;;;;;;5017010;28;20186;-88
2023/11/25 03:10:26;;;;;;;2.17;1.90;;;5.20;99.90;;;;;;5037007;28;20222;-88
2023/11/25 03:12:53;;;;;;;1.88;1.55;;;4.00;99.90;;;;;;5034778;28;20282;-88
2023/11/25 03:15:20;;;;;;;2.08;1.70;;;4.60;99.90;;;;;;5032052;28;20802;-88
2023/11/25 03:17:47;;;;;;;5.03;2.33;;;6.00;99.90;;;;;;5032795;28;20187;-88
2023/11/25 03:20:13;;;;;;;3.15;2.38;;;5.90;99.90;;;;;;5035579;28;20183;-88
2023/11/25 03:22:39;;;;;;;3.60;2.00;;;4.30;99.90;;;;;;5039099;28;20184;-88
2023/11/25 03:25:05;;;;;;;1.63;1.47;;;5.10;99.90;;;;;;5021617;28;20777;-88
2023/11/25 03:27:35;;;;;;;3.15;1.70;;;4.30;99.90;;;;;;5045202;28;20192;-88
2023/11/25 03:30:07;;;;;;;2.28;1.60;;;4.20;99.90;;;;;;5060966;28;20203;-88
2023/11/25 03:32:34;;;;;;;4.35;1.60;;;4.60;99.90;;;;;;5032052;28;20210;-88
2023/11/25 03:35:02;;;;;;;2.40;1.98;;;5.00;99.90;;;;;;5035538;28;20213;-88
2023/11/25 03:37:27;;;;;;;2.88;1.60;;;4.30;99.90;;;;;;5034184;23;20619;-86
2023/11/25 03:39:53;;;;;;;3.43;1.80;;;;;;;;;;5052860;28;20202;-85
2023/11/25 03:42:20;;;;;;;4.30;1.80;;;;;;;;;;5052402;28;20186;-86
2023/11/25 03:44:48;;;;;;;4.47;1.80;;;4.40;99.90;;;;;;5038547;28;21054;-86
2023/11/25 03:47:14;;;;;;;2.85;2.08;;;3.70;99.90;;;;;;5036250;28;20199;-85
2023/11/25 03:49:40;;;;;;;4.30;1.83;;;4.50;99.90;;;;;;5038926;28;20184;-86
2023/11/25 03:52:05;;;;;;;3.80;1.90;;;3.50;99.90;;;;;;5038168;28;20211;-86
2023/11/25 03:54:33;;;;;;;2.70;1.77;;;4.40;99.90;;;;;;5042346;28;20467;-85
2023/11/25 03:56:59;;;;;;;2.95;1.70;;;4.60;99.90;;;;;;5042533;28;21271;-86
2023/11/25 03:59:24;;;;;;;3.67;2.03;;;4.90;99.90;;;;;;5037498;28;20191;-86
2023/11/25 04:01:50;;;;;;;5.00;2.50;;;4.50;99.90;;;;;;5039561;28;20436;-86
2023/11/25 04:04:16;;;;;;;2.27;2.00;;;4.40;99.90;;;;;;5056458;28;20538;-86
2023/11/25 04:06:42;;;;;;;3.30;1.90;;;4.60;99.90;;;;;;5054351;28;20227;-87
2023/11/25 04:09:07;;;;;;;2.83;2.20;;;4.40;99.90;;;;;;5031425;28;20447;-86
2023/11/25 04:11:33;;;;;;;1.60;1.50;;;3.90;99.90;;;;;;5031863;28;20202;-87
2023/11/25 04:13:59;;;;;;;4.00;2.03;;;4.60;99.90;;;;;;5031193;28;20199;-87
2023/11/25 04:16:25;;;;;;;2.78;2.50;;;4.60;99.90;;;;;;5034586;28;20528;-87
2023/11/25 04:18:50;;;;;;;2.53;1.90;;;5.00;99.90;;;;;;5034785;28;20180;-87
2023/11/25 04:21:21;;;;;;;3.40;1.30;;;4.60;99.90;;;;;;5033002;28;20186;-86
2023/11/25 04:23:55;;;;;;;2.90;2.30;;;4.60;99.90;;;;;;5034591;28;20208;-87
2023/11/25 04:26:21;;;;;;;4.72;1.80;;;4.60;99.90;;;;;;5034725;28;20176;-87
2023/11/25 04:28:47;;;;;;;1.65;1.55;;;4.40;99.90;;;;;;5041118;28;20186;-87
2023/11/25 04:31:14;;;;;;;1.77;1.65;;;4.50;99.90;;;;;;5034406;28;20214;-86
2023/11/25 04:33:40;;;;;;;3.65;1.50;;;4.50;99.90;;;;;;5035466;28;20199;-87
2023/11/25 04:36:06;;;;;;;2.63;1.60;;;4.60;99.90;;;;;;5038410;28;20177;-86
2023/11/25 04:38:31;;;;;;;3.10;1.92;;;4.50;99.90;;;;;;5039057;28;20442;-86
2023/11/25 04:40:57;;;;;;;3.50;1.37;;;4.60;99.90;;;;;;5033830;28;20252;-87
2023/11/25 04:43:24;;;;;;;1.73;1.37;;;5.10;99.90;;;;;;5033994;28;20234;-86
2023/11/25 04:45:49;;;;;;;2.72;1.83;;;5.00;99.90;;;;;;5040002;28;20238;-86
2023/11/25 04:48:15;;;;;;;3.33;1.73;;;4.40;99.90;;;;;;5040803;28;20555;-86
2023/11/25 04:50:40;;;;;;;2.60;1.37;;;4.60;99.90;;;;;;5039986;28;20528;-86
2023/11/25 04:53:06;;;;;;;4.80;2.47;;;4.50;99.90;;;;;;5037854;28;20718;-86
2023/11/25 04:55:31;;;;;;;5.67;1.97;;;5.10;99.90;;;;;;5037542;28;20183;-86
2023/11/25 04:57:57;;;;;;;2.40;1.43;;;4.20;99.90;;;;;;5039100;28;20192;-86
2023/11/25 05:00:23;;;;;;;2.33;2.10;;;4.40;99.90;;;;;;5040363;28;20188;-87
2023/11/25 05:02:49;;;;;;;2.67;1.33;;;4.50;99.90;;;;;;5040990;28;20185;-86
2023/11/25 05:05:14;;;;;;;5.03;1.53;;;4.00;99.90;;;;;;5038215;28;20501;-88
2023/11/25 05:07:40;;;;;;;2.30;1.50;;;3.90;99.90;;;;;;5037152;28;20546;-87
2023/11/25 05:10:09;;;;;;;1.48;1.30;;;4.20;99.90;;;;;;5037651;28;20207;-86
2023/11/25 05:12:36;;;;;;;6.65;1.35;;;4.10;99.90;;;;;;5040014;28;20208;-86
2023/11/25 05:15:02;;;;;;;2.30;1.55;;;4.10;99.90;;;;;;5039118;28;20201;-85
2023/11/25 05:17:28;;;;;;;1.80;1.50;;;4.20;99.90;;;;;;5041832;28;20464;-85
2023/11/25 05:19:53;;;;;;;4.20;1.60;;;4.10;99.90;;;;;;5037794;28;20280;-85
2023/11/25 05:22:20;;;;;;;2.73;1.70;;;4.50;99.90;;;;;;5041592;28;20672;-86
2023/11/25 05:24:46;;;;;;;2.70;1.30;;;3.50;99.90;;;;;;5042555;28;20203;-87
2023/11/25 05:27:12;;;;;;;4.20;1.77;;;4.40;99.90;;;;;;5039890;28;20183;-87
2023/11/25 05:29:38;;;;;;;2.47;1.65;;;3.70;99.90;;;;;;5039091;28;20191;-85
2023/11/25 05:32:04;;;;;;;8.00;1.70;;;3.80;99.90;;;;;;5039638;28;20227;-86
2023/11/25 05:34:29;;;;;;;3.10;2.07;;;4.00;99.90;;;;;;5048629;28;20533;-87
2023/11/25 05:36:55;;;;;;;4.10;1.80;;;3.80;99.90;;;;;;5046753;28;20188;-85
2023/11/25 05:39:20;;;;;;;2.67;1.50;;;3.80;99.90;;;;;;5040439;28;20194;-87
2023/11/25 05:41:49;;;;;;;3.77;1.50;;;4.30;99.90;;;;;;5042529;28;20289;-85
2023/11/25 05:44:15;;;;;;;5.70;1.58;;;3.30;99.90;;;;;;5044982;28;20231;-85
2023/11/25 05:46:40;;;;;;;1.93;1.37;;;3.70;99.90;;;;;;5040891;28;20186;-86
2023/11/25 05:49:08;;;;;;;3.23;1.43;;;4.20;99.90;;;;;;5046902;28;20436;-85
2023/11/25 05:51:36;;;;;;;2.80;1.30;;;3.80;99.90;;;;;;5045547;28;20208;-86
2023/11/25 05:54:02;;;;;;;1.85;1.15;;;3.90;99.90;;;;;;5045145;28;20285;-86
2023/11/25 05:56:27;;;;;;;2.78;1.25;;;3.90;99.90;;;;;;5048234;28;20256;-86
2023/11/25 05:58:53;;;;;;;1.83;1.40;;;3.40;99.90;;;;;;5046247;28;20208;-86
2023/11/25 06:01:20;;;;;;;4.93;1.57;;;3.60;99.90;;;;;;5045833;28;20194;-86
2023/11/25 06:03:46;;;;;;;3.45;1.65;;;3.10;99.90;;;;;;5050449;28;20471;-86
2023/11/25 06:06:12;;;;;;;1.65;1.55;;;3.60;99.90;;;;;;5047392;28;20184;-86
2023/11/25 06:08:38;;;;;;;3.17;1.45;;;4.10;99.90;;;;;;5063445;28;20187;-86
2023/11/25 06:11:04;;;;;;;2.53;1.17;;;3.70;99.90;;;;;;5051273;28;20213;-86
2023/11/25 06:13:29;;;;;;;2.37;1.50;;;3.80;99.90;;;;;;5048951;28;20202;-86
2023/11/25 06:15:56;;;;;;;1.43;1.33;;;3.80;99.90;;;;;;5049625;28;20178;-86
2023/11/25 06:18:22;;;;;;;4.25;1.35;;;3.30;99.90;;;;;;5040357;28;20183;-86
2023/11/25 06:20:48;;;;;;;4.00;1.17;;;3.90;99.90;;;;;;5046333;28;20252;-86
2023/11/25 06:23:14;;;;;;;1.90;1.40;;;4.00;99.90;;;;;;5038242;28;20465;-87
2023/11/25 06:25:42;;;;;;;3.28;1.73;;;4.10;99.90;;;;;;5036632;28;20445;-86
2023/11/25 06:28:14;;;;;;;4.03;1.60;;;3.30;99.90;;;;;;5033174;28;20559;-86
2023/11/25 06:30:40;;;;;;;1.95;1.25;;;3.80;99.90;;;;;;5049514;28;20535;-86
2023/11/25 06:33:05;;;;;;;1.50;1.23;;;3.90;99.90;;;;;;5034564;28;20194;-86
2023/11/25 06:35:31;;;;;;;4.33;1.33;;;3.90;99.90;;;;;;5045967;28;20189;-86
2023/11/25 06:37:58;;;;;;;3.53;1.63;;;4.20;99.90;;;;;;5060075;28;20210;-86
2023/11/25 06:40:24;;;;;;;1.65;1.10;;;3.70;99.90;;;;;;5047641;28;20252;-87
2023/11/25 06:42:49;;;;;;;2.50;1.60;;;3.80;99.90;;;;;;5044548;28;20182;-87
2023/11/25 06:45:15;;;;;;;4.27;1.53;;;3.70;99.90;;;;;;5036232;28;20444;-87
2023/11/25 06:47:41;;;;;;;2.07;1.43;;;3.90;99.90;;;;;;5036581;28;20186;-87
2023/11/25 06:50:08;;;;;;;2.92;1.50;;;3.80;99.90;;;;;;5030870;28;20184;-87
2023/11/25 06:52:34;;;;;;;3.90;1.52;;;4.00;99.90;;;;;;5038080;28;20699;-87
2023/11/25 06:55:00;;;;;;;5.73;1.47;;;4.40;99.90;;;;;;5032217;28;20199;-87
2023/11/25 06:57:26;;;;;;;2.47;1.58;;;4.00;99.90;;;;;;5036214;28;20206;-87
2023/11/25 06:59:51;;;;;;;2.23;1.00;;;4.00;99.90;;;;;;5037217;28;20223;-87
2023/11/25 07:02:18;;;;;;;1.37;1.10;;;3.90;99.90;;;;;;5036212;28;20191;-87
2023/11/25 07:04:44;;;;;;;3.45;1.52;;;4.20;99.90;;;;;;5039225;28;20736;-87
2023/11/25 07:07:09;;;;;;;2.50;1.23;;;4.00;99.90;;;;;;5034985;28;20227;-87
2023/11/25 07:09:35;;;;;;;4.77;1.50;;;3.80;99.90;;;;;;5035206;28;20450;-86
2023/11/25 07:12:02;;;;;;;5.20;1.80;;;4.50;99.90;;;;;;5036860;28;20219;-87
2023/11/25 07:14:27;;;;;;;2.55;1.17;;;3.90;99.90;;;;;;5036458;28;20211;-86
2023/11/25 07:16:53;;;;;;;1.53;1.43;;;4.40;99.90;;;;;;5035759;28;20194;-87
2023/11/25 07:19:19;;;;;;;3.53;1.80;;;4.10;99.90;;;;;;5040834;28;20200;-87
2023/11/25 07:21:44;;;;;;;2.07;1.33;;;4.40;99.90;;;;;;5032601;28;20192;-86
2023/11/25 07:24:11;;;;;;;3.20;1.50;;;4.20;99.90;;;;;;5031889;28;20213;-87
2023/11/25 07:26:41;;;;;;;4.88;1.65;;;3.90;99.90;;;;;;5038301;28;20179;-86
2023/11/25 07:29:09;;;;;;;4.60;1.63;;;4.10;99.90;;;;;;5031735;28;20179;-87
2023/11/25 07:31:36;;;;;;;7.85;2.05;;;3.90;99.90;;;;;;5036986;28;20203;-85
2023/11/25 07:34:02;;;;;;;2.20;1.10;;;4.30;99.90;;;;;;5034841;28;20292;-86
2023/11/25 07:36:29;;;;;;;2.40;1.65;;;4.10;99.90;;;;;;5039848;28;20203;-86
2023/11/25 07:38:54;;;;;;;3.83;2.43;;;4.30;99.90;;;;;;5032543;28;20181;-85
2023/11/25 07:41:20;;;;;;;4.50;1.70;;;4.30;99.90;;;;;;5033959;28;20188;-87
2023/11/25 07:43:46;;;;;;;3.22;2.10;;;4.70;99.90;;;;;;5039077;28;20210;-87
2023/11/25 07:46:11;;;;;;;4.20;3.00;;;4.30;99.90;;;;;;5049927;28;20195;-86
2023/11/25 07:48:37;;;;;;;5.60;1.80;;;4.70;99.90;;;;;;5036050;28;20648;-86
2023/11/25 07:51:04;;;;;;;3.80;1.73;;;5.00;99.90;;;;;;5034351;28;20664;-86
2023/11/25 07:53:30;;;;;;;2.42;1.38;;;4.50;99.90;;;;;;5033827;28;20747;-86
2023/11/25 07:55:56;;;;;;;1.57;1.10;;;5.10;99.90;;;;;;5033413;28;20177;-87
2023/11/25 07:58:22;;;;;;;2.43;1.47;;;5.10;99.90;;;;;;5031742;28;20184;-87
2023/11/25 08:00:49;;;;;;;3.38;2.25;;;4.70;99.90;;;;;;5037918;28;20436;-87
2023/11/25 08:03:15;;;;;;;7.03;3.20;;;5.20;99.90;;;;;;5041643;28;20274;-86
2023/11/25 08:05:41;;;;;;;9.47;2.10;;;4.90;99.90;;;;;;5034767;28;20264;-85
2023/11/25 08:08:06;;;;;;;4.00;1.60;;;4.80;99.90;;;;;;5030894;28;20440;-87
2023/11/25 08:10:34;;;;;;;6.47;2.60;;;4.80;99.90;;;;;;5030007;28;20283;-86
2023/11/25 08:13:00;;;;;;;2.03;1.40;;;4.50;99.90;;;;;;5033410;28;20172;-87
2023/11/25 08:15:26;;;;;;;4.22;1.70;;;5.10;99.90;;;;;;5027152;28;20182;-88
2023/11/25 08:17:52;;;;;;;1.83;1.40;;;4.80;99.90;;;;;;5028303;28;20315;-87
2023/11/25 08:20:17;;;;;;;4.73;2.60;;;4.90;99.90;;;;;;5032496;28;20180;-88
2023/11/25 08:22:43;;;;;;;4.73;1.50;;;4.80;99.90;;;;;;5032536;28;20192;-87
2023/11/25 08:25:09;;;;;;;4.40;3.17;;;4.90;99.90;;;;;;5032997;28;20226;-88
2023/11/25 08:27:35;;;;;;;3.55;1.55;;;5.20;99.90;;;;;;5033384;28;20196;-86
2023/11/25 08:30:01;;;;;;;4.60;2.42;;;4.80;99.90;;;;;;5035645;28;20184;-87
2023/11/25 08:32:27;;;;;;;4.20;1.97;;;5.10;99.90;;;;;;5033576;28;20278;-86
2023/11/25 08:38:35;;;;;;;7.63;4.18;;;5.10;99.90;;;;;;4945649;28;20282;-86
2023/11/25 08:41:03;;;;;;;5.07;2.90;;;5.00;99.90;;;;;;5009016;28;20172;-85
2023/11/25 08:43:29;;;;;;;2.22;1.92;;;5.60;99.90;;;;;;5013337;28;20844;-86
2023/11/25 08:45:54;;;;;;;3.35;1.67;;;4.50;99.90;;;;;;5010971;28;20218;-81
2023/11/25 08:48:21;;;;;;;3.23;1.57;;;5.60;99.90;;;;;;5021740;28;20607;-86
2023/11/25 08:50:46;;;;;;;4.35;1.30;;;5.30;99.90;;;;;;5008679;28;20210;-85
2023/11/25 08:53:14;;;;;;;2.00;1.33;;;4.90;99.90;;;;;;5010251;28;20194;-85
2023/11/25 08:55:39;;;;;;;5.85;1.50;;;5.90;99.90;;;;;;5015336;28;20177;-84
2023/11/25 08:58:07;;;;;;;2.33;1.23;;;5.60;99.90;;;;;;5016390;28;20208;-86
2023/11/25 09:00:33;;;;;;;3.47;1.73;;;5.50;99.90;;;;;;5012225;28;20193;-84
2023/11/25 09:02:58;;;;;;;3.78;1.30;;;5.70;99.90;;;;;;5013457;28;20170;-85
2023/11/25 09:05:25;;;;;;;2.60;1.40;;;5.20;99.90;;;;;;5032351;28;20213;-84
2023/11/25 09:07:55;;;;;;;3.05;1.50;;;5.70;99.90;;;;;;5024218;28;20212;-86
2023/11/25 09:10:22;;;;;;;3.28;1.80;;;5.30;99.90;;;;;;5016388;28;20204;-82
2023/11/25 09:12:48;;;;;;;3.60;1.30;;;5.70;99.90;;;;;;5014597;28;20201;-83
2023/11/25 09:15:14;;;;;;;8.00;1.80;;;5.70;99.90;;;;;;5012703;28;20529;-83
2023/11/25 09:17:41;;;;;;;5.47;2.10;;;5.80;99.90;;;;;;5016019;28;20189;-82
2023/11/25 09:20:11;;;;;;;3.83;2.25;;;6.00;99.90;;;;;;5016214;28;20192;-82
2023/11/25 09:22:37;;;;;;;4.22;1.50;;;5.80;99.90;;;;;;5017160;28;20269;-83
2023/11/25 09:25:04;;;;;;;4.53;1.98;;;6.00;99.90;;;;;;5014642;28;20198;-83
2023/11/25 09:27:29;;;;;;;5.32;2.10;;;6.00;99.90;;;;;;5017235;28;20241;-83
2023/11/25 09:29:55;;;;;;;4.43;2.03;;;6.60;99.90;;;;;;5013477;28;20221;-82
2023/11/25 09:32:22;;;;;;;10.33;2.40;;;6.00;99.90;;;;;;5015337;28;20264;-82
2023/11/25 09:34:48;;;;;;;7.00;1.88;;;6.70;99.90;;;;;;5018565;28;20475;-83
2023/11/25 09:37:14;;;;;;;5.40;2.75;;;6.30;99.90;;;;;;5018482;28;20190;-83
2023/11/25 09:39:40;;;;;;;3.22;1.80;;;6.30;99.90;;;;;;5020452;28;20194;-83
2023/11/25 09:42:06;;;;;;;3.67;1.97;;;6.20;99.90;;;;;;5017355;28;20187;-83
2023/11/25 09:44:32;;;;;;;5.85;2.17;;;6.20;99.90;;;;;;5019211;28;20194;-83
2023/11/25 09:46:58;;;;;;;13.82;2.58;;;6.20;99.90;;;;;;5019986;28;20186;-83
2023/11/25 09:49:24;;;;;;;5.47;2.63;;;6.20;99.90;;;;;;5020494;28;20186;-83
2023/11/25 09:51:51;;;;;;;4.30;2.23;;;6.20;99.90;;;;;;5020338;28;20226;-84
2023/11/25 09:54:24;;;;;;;6.00;2.15;;;6.30;99.90;;;;;;5014125;28;20199;-85
2023/11/25 09:56:50;;;;;;;8.57;3.03;;;6.40;99.90;;;;;;5021118;28;20201;-85
2023/11/25 09:59:18;;;;;;;3.15;1.70;;;6.60;99.90;;;;;;5020767;28;20197;-84
2023/11/25 10:01:44;;;;;;;6.30;1.65;;;6.20;99.90;;;;;;5018592;28;20273;-83
2023/11/25 10:04:13;;;;;;;8.57;2.83;;;6.40;99.90;;;;;;5021861;28;20567;-84
2023/11/25 10:06:38;;;;;;;6.93;2.65;;;6.60;99.90;;;;;;5022009;28;20186;-84
2023/11/25 10:09:08;;;;;;;6.90;2.50;;;6.60;99.90;;;;;;5018609;28;20281;-84
2023/11/25 10:11:35;;;;;;;5.82;2.10;;;7.00;99.90;;;;;;5018459;28;20202;-83
2023/11/25 10:14:03;;;;;;;11.80;2.25;;;7.30;99.90;;;;;;5018186;28;20248;-82
2023/11/25 10:16:29;;;;;;;4.93;2.08;;;7.30;99.90;;;;;;5020608;28;20265;-82
2023/11/25 10:18:56;;;;;;;7.85;3.47;;;7.40;99.90;;;;;;5021504;28;20186;-83
2023/11/25 10:21:22;;;;;;;6.30;2.63;;;7.50;99.90;;;;;;5021972;28;20559;-82
2023/11/25 10:23:50;;;;;;;4.73;1.77;;;7.50;99.90;;;;;;5020289;28;20213;-82
2023/11/25 10:26:18;;;;;;;7.53;2.00;;;7.80;99.90;;;;;;5017606;28;20430;-81
2023/11/25 10:28:45;;;;;;;5.88;1.80;;;7.40;99.90;;;;;;5019613;28;20190;-81
2023/11/25 10:31:16;;;;;;;4.57;2.00;;;7.90;99.90;;;;;;5017264;28;20230;-80
2023/11/25 10:33:42;;;;;;;10.18;2.55;;;7.50;99.90;;;;;;5037853;28;20288;-81
2023/11/25 10:36:10;;;;;;;8.00;2.47;;;7.50;99.90;;;;;;5020848;28;20651;-82
2023/11/25 10:38:39;;;;;;;7.88;2.10;;;7.80;99.90;;;;;;5022680;28;20659;-81
2023/11/25 10:41:06;;;;;;;5.68;2.13;;;7.40;99.90;;;;;;5018219;28;20185;-81
2023/11/25 10:43:32;;;;;;;4.75;2.05;;;8.00;99.90;;;;;;5016682;28;20210;-80
2023/11/25 10:46:02;;;;;;;6.07;2.50;;;7.40;99.90;;;;;;5018339;28;20235;-81
2023/11/25 10:48:28;;;;;;;7.03;2.20;;;8.00;99.90;;;;;;5018619;28;20186;-80
2023/11/25 10:50:54;;;;;;;6.97;2.60;;;7.90;99.90;;;;;;5017420;28;20293;-81
2023/11/25 10:53:21;;;;;;;3.57;2.00;;;7.60;98.80;;;;;;5012859;28;20667;-81
2023/11/25 10:55:47;;;;;;;8.32;2.50;;;7.80;99.20;;;;;;5017178;28;20182;-81
2023/11/25 10:58:15;;;;;;;10.88;3.45;;;7.70;99.50;;;;;;5016773;28;20225;-81
2023/11/25 11:00:43;;;;;;;6.97;2.20;;;8.50;98.60;;;;;;5017896;28;20186;-81
2023/11/25 11:03:12;;;;;;;4.20;2.70;;;8.40;97.40;;;;;;5016249;28;20202;-81
2023/11/25 11:05:53;;;;;;;6.60;2.65;;;8.80;97.20;;;;;;5035905;28;20554;-81
2023/11/25 11:08:31;;;;;;;5.90;1.98;;;9.10;96.70;;;;;;5017531;28;20180;-81
2023/11/25 11:11:03;;;;;;;5.28;2.05;;;9.10;96.20;;;;;;5018503;28;20212;-82
2023/11/25 11:13:33;;;;;;;3.50;1.77;;;9.50;95.50;;;;;;5033651;28;20282;-81
2023/11/25 11:16:05;;;;;;;3.67;1.88;;;8.50;95.10;;;;;;5016682;28;20175;-81
2023/11/25 11:18:35;;;;;;;6.45;2.42;;;8.80;95.40;;;;;;5016556;28;20277;-82
2023/11/25 11:21:08;;;;;;;7.47;2.05;;;8.60;95.50;;;;;;5014237;28;21020;-82
2023/11/25 11:23:37;;;;;;;5.45;2.30;;;9.00;95.40;;;;;;5013486;28;20213;-81
2023/11/25 11:26:35;;;;;;;3.33;2.08;;;8.50;96.20;;;;;;5012966;28;20208;-81
2023/11/25 11:29:07;;;;;;;5.40;2.75;;;8.30;97.10;;;;;;5011848;28;20251;-82
2023/11/25 11:31:41;;;;;;;6.70;3.05;;;8.40;97.00;;;;;;5050565;28;20198;-82
2023/11/25 11:34:07;;;;;;;7.82;2.10;;;8.30;97.00;;;;;;5041087;28;20224;-82
2023/11/25 11:36:35;;;;;;;3.55;1.73;;;8.00;96.60;;;;;;5031916;28;20201;-82
2023/11/25 11:39:01;;;;;;;4.13;1.88;;;8.30;96.90;;;;;;5016020;28;20261;-82
2023/11/25 11:41:30;;;;;;;6.55;2.00;;;7.90;96.90;;;;;;5016425;28;20226;-81
2023/11/25 11:44:10;;;;;;;6.20;1.90;;;8.60;96.90;;;;;;5033618;28;21111;-81
2023/11/25 11:46:42;;;;;;;6.28;2.00;;;8.20;97.30;;;;;;5033824;28;20434;-82
2023/11/25 11:49:10;;;;;;;3.17;1.60;;;8.00;97.40;;;;;;5014473;28;20183;-82
2023/11/25 11:51:35;;;;;;;3.22;1.33;;;7.80;97.70;;;;;;5015596;28;20206;-80
2023/11/25 11:54:27;;;;;;;4.23;1.97;;;7.10;98.70;;;;;;5032312;28;20210;-81
2023/11/25 11:57:03;;;;;;;6.55;2.00;;;7.20;99.90;;;;;;5017753;28;20178;-81
2023/11/25 12:00:00;;;;;;;3.28;1.75;;;7.10;99.90;;;;;;5013452;28;20174;-81
2023/11/25 12:02:32;;;;;;;5.30;1.65;;;7.20;99.90;;;;;;5015370;28;20179;-82
2023/11/25 12:04:59;;;;;;;5.80;1.80;;;7.10;99.90;;;;;;5010512;28;20206;-81
2023/11/25 12:07:26;;;;;;;4.90;2.15;;;7.10;99.90;;;;;;5015003;28;20187;-82
2023/11/25 12:09:55;;;;;;;2.35;2.08;;;6.80;99.90;;;;;;5030044;28;20189;-82
2023/11/25 12:12:21;;;;;;;3.90;1.70;;;7.20;99.90;;;;;;5019107;28;20206;-83
2023/11/25 12:14:47;;;;;;;2.63;1.40;;;6.70;99.90;;;;;;5011260;28;20270;-83
2023/11/25 12:17:42;;;;;;;4.82;1.77;;;6.60;99.90;;;;;;5014170;28;20193;-81
2023/11/25 12:20:13;;;;;;;1.70;1.60;;;6.50;99.90;;;;;;5016579;28;20174;-79
2023/11/25 12:22:39;;;;;;;2.97;1.70;;;6.50;99.90;;;;;;5028413;28;20174;-84
2023/11/25 12:25:06;;;;;;;7.65;2.08;;;6.50;99.90;;;;;;5015786;28;20687;-85
2023/11/25 12:27:34;;;;;;;2.60;1.90;;;6.50;99.90;;;;;;5017555;28;20246;-85
2023/11/25 12:30:00;;;;;;;6.00;1.65;;;6.50;99.90;;;;;;5016183;28;20273;-86
2023/11/25 12:32:25;;;;;;;3.30;1.80;;;6.40;99.90;;;;;;5019532;28;20288;-85
2023/11/25 12:34:51;;;;;;;2.07;1.80;;;6.70;99.90;;;;;;5021467;28;20248;-84
2023/11/25 12:37:16;;;;;;;1.60;1.40;;;5.90;99.90;;;;;;5022089;28;20189;-83
2023/11/25 12:39:44;;;;;;;2.90;1.70;;;6.80;99.90;;;;;;5021624;28;20535;-85
2023/11/25 12:42:10;;;;;;;2.60;1.73;;;6.50;99.90;;;;;;5018984;28;20221;-85
2023/11/25 12:44:49;;;;;;;2.33;2.10;;;6.70;99.90;;;;;;5017147;28;20297;-85
2023/11/25 12:47:15;;;;;;;2.45;1.70;;;6.70;99.90;;;;;;5038202;28;20530;-84
2023/11/25 12:49:41;;;;;;;2.53;1.77;;;6.30;99.90;;;;;;5020857;28;20232;-84
2023/11/25 12:52:18;;;;;;;2.30;1.40;;;6.60;99.90;;;;;;5023227;28;20251;-83
2023/11/25 12:54:45;;;;;;;2.10;1.50;;;6.30;99.90;;;;;;5017690;28;20193;-86
2023/11/25 12:57:12;;;;;;;2.10;1.60;;;6.20;99.90;;;;;;5020301;28;20193;-85
2023/11/25 12:59:38;;;;;;;6.95;2.60;;;5.80;99.90;;;;;;5016089;28;20182;-85
2023/11/25 13:02:08;;;;;;;3.77;3.37;;;5.60;99.90;;;;;;5039038;28;20196;-85
2023/11/25 13:04:35;;;;;;;5.55;1.90;;;6.30;99.90;;;;;;5024946;28;20226;-85